createdAt,value
2022-11-26T00:01:22.521Z,16.25
2022-11-26T00:04:24.637Z,16.33
2022-11-26T00:07:29.975Z,15.57
2022-11-26T00:10:36.471Z,14.93
2022-11-26T00:13:38.433Z,15.85
2022-11-26T00:16:40.646Z,14.73
2022-11-26T00:19:44.033Z,16.90
2022-11-26T00:22:50.946Z,14.43
2022-11-26T00:25:59.878Z,16.55
2022-11-26T00:29:01.861Z,17.98
2022-11-26T00:32:06.201Z,17.92
2022-11-26T00:35:08.503Z,14.70
2022-11-26T00:38:17.154Z,15.07
2022-11-26T00:41:22.401Z,16.88
2022-11-26T00:44:26.101Z,15.60
2022-11-26T00:47:28.093Z,17.15
2022-11-26T00:50:36.925Z,16.77
2022-11-26T00:53:40.754Z,15.82
2022-11-26T00:56:42.994Z,15.15
2022-11-26T00:59:45.024Z,15.20
2022-11-26T01:02:47.320Z,15.57
2022-11-26T01:05:54.923Z,15.10
2022-11-26T01:08:57.318Z,15.40
2022-11-26T01:11:59.866Z,15.70
2022-11-26T01:15:01.946Z,16.08
2022-11-26T01:18:15.083Z,16.17
2022-11-26T01:21:17.907Z,15.07
2022-11-26T01:24:19.977Z,15.65
2022-11-26T01:27:22.116Z,14.02
2022-11-26T01:30:26.897Z,14.57
2022-11-26T01:33:28.944Z,14.63
2022-11-26T01:36:33.625Z,13.43
2022-11-26T01:39:35.662Z,15.70
2022-11-26T01:42:49.705Z,15.65
2022-11-26T01:45:51.831Z,15.30
2022-11-26T01:48:55.882Z,16.80
2022-11-26T01:52:16.118Z,14.98
2022-11-26T01:55:19.436Z,15.82
2022-11-26T01:58:27.397Z,16.00
2022-11-26T02:01:29.637Z,14.20
2022-11-26T02:04:34.956Z,15.48
2022-11-26T02:07:37.777Z,17.52
2022-11-26T02:10:39.831Z,13.45
2022-11-26T02:13:42.067Z,16.63
2022-11-26T02:17:02.473Z,17.30
2022-11-26T02:20:10.299Z,14.52
2022-11-26T02:23:18.076Z,14.87
2022-11-26T02:26:41.730Z,14.50
2022-11-26T02:29:51.716Z,15.65
2022-11-26T02:33:04.664Z,15.23
2022-11-26T02:36:19.618Z,15.95
2022-11-26T02:39:24.821Z,15.43
2022-11-26T02:42:29.730Z,14.90
2022-11-26T02:45:37.361Z,16.58
2022-11-26T02:48:43.625Z,15.00
2022-11-26T02:51:48.191Z,16.85
2022-11-26T02:54:52.925Z,14.68
2022-11-26T02:57:56.269Z,14.27
2022-11-26T03:01:00.864Z,15.13
2022-11-26T03:04:09.791Z,14.77
2022-11-26T03:07:15.065Z,14.80
2022-11-26T03:10:17.296Z,13.98
2022-11-26T03:13:19.338Z,14.68
2022-11-26T03:16:21.526Z,15.88
2022-11-26T03:19:23.661Z,15.00
2022-11-26T03:22:25.853Z,15.00
2022-11-26T03:25:27.909Z,13.85
2022-11-26T03:28:30.480Z,15.48
2022-11-26T03:31:32.621Z,15.82
2022-11-26T03:34:34.692Z,15.77
2022-11-26T03:37:37.491Z,15.40
2022-11-26T03:40:39.530Z,14.25
2022-11-26T03:43:41.665Z,16.15
2022-11-26T03:46:43.698Z,15.98
2022-11-26T03:49:45.770Z,15.18
2022-11-26T03:52:47.913Z,15.50
2022-11-26T03:55:49.877Z,15.30
2022-11-26T03:58:51.851Z,16.45
2022-11-26T04:01:53.996Z,15.52
2022-11-26T04:04:56.122Z,16.05
2022-11-26T04:07:58.071Z,16.33
2022-11-26T04:11:00.241Z,15.77
2022-11-26T04:14:02.310Z,15.85
2022-11-26T04:17:04.491Z,16.27
2022-11-26T04:20:07.499Z,14.65
2022-11-26T04:23:09.521Z,14.85
2022-11-26T04:26:11.580Z,15.10
2022-11-26T04:29:13.643Z,13.43
2022-11-26T04:32:15.709Z,13.82
2022-11-26T04:35:17.896Z,13.15
2022-11-26T04:38:25.329Z,14.40
2022-11-26T04:41:28.115Z,12.65
2022-11-26T04:44:30.335Z,13.65
2022-11-26T04:47:32.331Z,14.68
2022-11-26T04:50:34.443Z,18.25
2022-11-26T04:53:36.443Z,14.30
2022-11-26T04:56:38.548Z,13.63
2022-11-26T04:59:40.588Z,13.45
2022-11-26T05:02:42.997Z,14.65
2022-11-26T05:05:45.026Z,12.45
2022-11-26T05:08:47.088Z,13.60
2022-11-26T05:11:49.238Z,12.90
2022-11-26T05:14:51.376Z,13.43
2022-11-26T05:17:53.453Z,13.85
2022-11-26T05:20:55.566Z,12.55
2022-11-26T05:23:57.593Z,12.10
2022-11-26T05:26:59.676Z,11.45
2022-11-26T05:30:02.123Z,13.77
2022-11-26T05:33:04.284Z,14.27
2022-11-26T05:36:06.461Z,12.88
2022-11-26T05:39:08.497Z,13.07
2022-11-26T05:42:10.570Z,11.73
2022-11-26T05:45:12.580Z,11.30
2022-11-26T05:48:14.507Z,12.63
2022-11-26T05:51:16.572Z,12.50
2022-11-26T05:54:18.648Z,13.50
2022-11-26T05:57:20.933Z,13.50
2022-11-26T06:00:23.442Z,13.30
2022-11-26T06:03:25.613Z,12.20
2022-11-26T06:06:27.731Z,12.77
2022-11-26T06:09:29.806Z,13.00
2022-11-26T06:12:31.893Z,14.50
2022-11-26T06:15:33.960Z,14.27
2022-11-26T06:18:39.236Z,13.07
2022-11-26T06:21:41.265Z,13.77
2022-11-26T06:24:43.255Z,13.07
2022-11-26T06:27:45.318Z,15.23
2022-11-26T06:30:47.455Z,16.55
2022-11-26T06:33:54.282Z,13.60
2022-11-26T06:36:56.334Z,13.68
2022-11-26T06:39:58.590Z,14.00
2022-11-26T06:43:00.781Z,13.73
2022-11-26T06:46:05.673Z,14.95
2022-11-26T06:49:07.815Z,13.70
2022-11-26T06:52:09.948Z,15.57
2022-11-26T06:55:12.177Z,14.80
2022-11-26T06:58:15.110Z,16.20
2022-11-26T07:01:25.019Z,13.35
2022-11-26T07:04:27.378Z,15.17
2022-11-26T07:07:29.728Z,14.25
2022-11-26T07:10:31.917Z,13.95
2022-11-26T07:13:34.017Z,12.10
2022-11-26T07:16:36.750Z,13.45
2022-11-26T07:19:38.976Z,15.85
2022-11-26T07:22:41.017Z,14.15
2022-11-26T07:25:42.956Z,14.10
2022-11-26T07:28:45.104Z,14.13
2022-11-26T07:31:50.136Z,14.25
2022-11-26T07:34:53.995Z,16.15
2022-11-26T07:37:56.631Z,13.68
2022-11-26T07:41:10.331Z,12.98
2022-11-26T07:44:14.371Z,12.93
2022-11-26T07:47:17.577Z,13.25
2022-11-26T07:50:19.690Z,15.10
2022-11-26T07:53:21.949Z,14.32
2022-11-26T07:56:24.703Z,12.13
2022-11-26T07:59:27.242Z,14.43
2022-11-26T08:02:29.236Z,13.88
2022-11-26T08:05:31.296Z,13.60
2022-11-26T08:08:34.883Z,14.15
2022-11-26T08:11:37.094Z,12.27
2022-11-26T08:14:39.232Z,13.10
2022-11-26T08:17:41.474Z,11.85
2022-11-26T08:20:43.573Z,15.15
2022-11-26T08:23:47.931Z,13.25
2022-11-26T08:26:57.276Z,12.07
2022-11-26T08:29:59.365Z,14.05
2022-11-26T08:33:04.009Z,11.85
2022-11-26T08:36:08.587Z,11.85
2022-11-26T08:39:15.329Z,13.05
2022-11-26T08:42:17.407Z,12.02
2022-11-26T08:45:19.419Z,11.15
2022-11-26T08:48:22.912Z,11.68
2022-11-26T08:51:25.147Z,5.80
2022-11-26T08:54:27.563Z,9.73
2022-11-26T08:57:29.565Z,9.15
2022-11-26T09:00:31.622Z,7.93
2022-11-26T09:03:33.728Z,9.55
2022-11-26T09:06:38.503Z,9.98
2022-11-26T09:09:42.913Z,4.38
2022-11-26T09:12:45.107Z,8.68
2022-11-26T09:15:48.636Z,9.95
2022-11-26T09:18:52.628Z,8.75
2022-11-26T09:21:55.091Z,8.05
2022-11-26T09:24:57.079Z,11.45
2022-11-26T09:27:59.151Z,5.82
2022-11-26T09:31:02.256Z,10.65
2022-11-26T09:34:04.437Z,9.82
2022-11-26T09:37:06.960Z,7.63
2022-11-26T09:40:19.043Z,7.97
2022-11-26T09:43:33.560Z,9.80
2022-11-26T09:47:12.581Z,7.38
2022-11-26T09:50:15.290Z,5.72
2022-11-26T09:53:25.744Z,7.78
2022-11-26T09:56:27.906Z,7.75
2022-11-26T09:59:30.871Z,10.20
2022-11-26T10:02:40.886Z,9.13
2022-11-26T10:06:03.153Z,9.73
2022-11-26T10:09:17.014Z,10.38
2022-11-26T10:13:03.427Z,9.93
2022-11-26T10:16:15.293Z,10.35
2022-11-26T10:19:44.980Z,10.18
2022-11-26T10:26:29.596Z,10.68
2022-11-26T10:29:39.523Z,10.63
2022-11-26T10:32:44.916Z,10.07
2022-11-26T10:35:49.659Z,10.63
2022-11-26T10:38:53.681Z,9.60
2022-11-26T10:41:56.028Z,11.20
2022-11-26T10:45:18.710Z,9.05
2022-11-26T10:48:27.113Z,11.85
2022-11-26T10:51:33.299Z,11.20
2022-11-26T10:54:38.208Z,12.57
2022-11-26T10:57:43.965Z,10.45
2022-11-26T11:00:48.847Z,11.25
2022-11-26T11:04:13.087Z,11.05
2022-11-26T11:07:34.691Z,9.70
2022-11-26T11:10:38.030Z,9.00
2022-11-26T11:13:45.009Z,10.32
2022-11-26T11:16:47.131Z,8.18
2022-11-26T11:19:49.187Z,8.38
2022-11-26T11:23:00.482Z,9.65
2022-11-26T11:26:09.154Z,9.40
2022-11-26T11:29:35.401Z,8.23
2022-11-26T11:32:40.741Z,10.45
2022-11-26T11:35:43.039Z,9.00
2022-11-26T11:38:53.883Z,9.07
2022-11-26T11:42:05.020Z,9.85
2022-11-26T11:45:23.225Z,9.73
2022-11-26T11:48:43.744Z,9.45
2022-11-26T11:51:58.375Z,10.05
2022-11-26T11:55:28.991Z,9.15
2022-11-26T11:58:38.284Z,9.35
2022-11-26T12:01:54.187Z,9.48
2022-11-26T12:05:17.846Z,8.57
2022-11-26T12:08:45.777Z,7.53
2022-11-26T12:11:59.206Z,7.15
2022-11-26T12:15:22.100Z,7.50
2022-11-26T12:18:46.520Z,9.70
2022-11-26T12:21:56.944Z,8.32
2022-11-26T12:25:18.167Z,8.73
2022-11-26T12:28:27.963Z,8.10
2022-11-26T12:31:39.150Z,7.75
2022-11-26T12:34:47.684Z,9.35
2022-11-26T12:41:48.280Z,10.27
2022-11-26T12:44:55.654Z,8.52
2022-11-26T12:48:05.623Z,8.85
2022-11-26T12:51:26.690Z,8.77
2022-11-26T12:54:28.759Z,7.82
2022-11-26T12:58:08.201Z,9.82
2022-11-26T13:01:11.773Z,11.20
2022-11-26T13:08:32.357Z,10.30
2022-11-26T13:11:55.233Z,10.88
2022-11-26T13:15:32.050Z,9.40
2022-11-26T13:18:38.869Z,10.35
2022-11-26T13:21:54.764Z,11.02
2022-11-26T13:25:28.619Z,9.13
2022-11-26T13:29:18.094Z,10.20
2022-11-26T13:32:44.323Z,11.45
2022-11-26T13:36:26.946Z,12.00
2022-11-26T13:39:50.645Z,12.18
2022-11-26T13:43:17.109Z,11.40
2022-11-26T13:46:47.090Z,10.43
2022-11-26T13:50:14.938Z,12.48
2022-11-26T13:53:32.703Z,6.85
2022-11-26T13:56:38.376Z,9.70
2022-11-26T13:59:57.175Z,10.60
2022-11-26T14:03:01.273Z,11.70
2022-11-26T14:06:07.817Z,10.68
2022-11-26T14:09:57.716Z,11.35
2022-11-26T14:13:05.885Z,10.75
2022-11-26T14:16:16.188Z,10.65
2022-11-26T14:19:22.227Z,9.70
2022-11-26T14:22:34.996Z,9.35
2022-11-26T14:25:40.314Z,13.50
2022-11-26T14:28:43.171Z,12.15
2022-11-26T14:31:54.050Z,12.43
2022-11-26T14:35:01.062Z,11.90
2022-11-26T14:38:09.724Z,11.90
2022-11-26T14:44:18.594Z,13.18
2022-11-26T14:47:22.231Z,13.73
2022-11-26T14:50:24.932Z,13.93
2022-11-26T14:53:31.089Z,13.90
2022-11-26T14:56:42.763Z,14.48
2022-11-26T15:00:02.602Z,16.88
2022-11-26T15:03:25.467Z,16.75
2022-11-26T15:06:30.222Z,18.33
2022-11-26T15:09:32.331Z,16.80
2022-11-26T15:13:04.721Z,17.63
2022-11-26T15:16:53.989Z,16.73
2022-11-26T15:20:02.836Z,16.63
2022-11-26T15:23:09.395Z,16.45
2022-11-26T15:29:49.424Z,14.35
2022-11-26T15:33:10.214Z,14.25
2022-11-26T15:36:17.451Z,14.18
2022-11-26T15:39:32.045Z,11.50
2022-11-26T15:42:34.482Z,14.00
2022-11-26T15:45:40.751Z,13.95
2022-11-26T15:48:53.737Z,12.15
2022-11-26T15:52:03.715Z,14.80
2022-11-26T15:55:12.984Z,13.98
2022-11-26T15:58:31.814Z,13.85
2022-11-26T16:01:36.590Z,18.80
2022-11-26T16:05:08.450Z,16.40
2022-11-26T16:08:27.979Z,14.75
2022-11-26T16:11:32.059Z,15.68
2022-11-26T16:14:36.713Z,16.65
2022-11-26T16:17:39.476Z,17.38
2022-11-26T16:20:42.546Z,17.15
2022-11-26T16:23:53.945Z,17.27
2022-11-26T16:27:02.251Z,16.25
2022-11-26T16:30:14.772Z,17.00
2022-11-26T16:33:19.280Z,16.55
2022-11-26T16:36:24.319Z,14.05
2022-11-26T16:39:30.025Z,18.23
2022-11-26T16:42:57.586Z,18.45
2022-11-26T16:46:01.295Z,20.10
2022-11-26T16:49:03.742Z,15.95
2022-11-26T16:52:19.340Z,18.80
2022-11-26T16:55:26.237Z,18.23
2022-11-26T16:58:32.943Z,17.13
2022-11-26T17:01:36.139Z,17.95
2022-11-26T17:04:38.169Z,17.20
2022-11-26T17:07:46.645Z,17.20
2022-11-26T17:13:51.114Z,16.02
2022-11-26T17:16:53.298Z,17.50
2022-11-26T17:19:56.818Z,18.20
2022-11-26T17:22:58.850Z,17.35
2022-11-26T17:26:01.362Z,17.60
2022-11-26T17:29:03.789Z,15.85
2022-11-26T17:32:05.769Z,18.30
2022-11-26T17:35:07.853Z,18.15
2022-11-26T17:38:23.180Z,17.50
2022-11-26T17:41:25.220Z,17.88
2022-11-26T17:44:27.255Z,19.38
2022-11-26T17:47:29.386Z,17.63
2022-11-26T17:50:33.480Z,16.70
2022-11-26T17:53:39.693Z,16.75
2022-11-26T17:56:41.870Z,18.83
2022-11-26T17:59:49.630Z,15.98
2022-11-26T18:02:52.338Z,18.07
2022-11-26T18:05:54.606Z,16.15
2022-11-26T18:08:58.427Z,14.07
2022-11-26T18:12:01.304Z,15.60
2022-11-26T18:15:04.204Z,17.10
2022-11-26T18:18:07.703Z,15.05
2022-11-26T18:21:12.168Z,15.85
2022-11-26T18:24:14.219Z,16.88
2022-11-26T18:27:16.299Z,17.33
2022-11-26T18:30:19.114Z,16.25
2022-11-26T18:33:21.523Z,16.48
2022-11-26T18:36:23.640Z,16.42
2022-11-26T18:39:25.639Z,14.65
2022-11-26T18:42:43.075Z,16.55
2022-11-26T18:45:46.745Z,16.30
2022-11-26T18:48:51.318Z,16.02
2022-11-26T18:51:53.381Z,14.85
2022-11-26T18:54:56.341Z,15.57
2022-11-26T18:57:58.827Z,16.85
2022-11-26T19:01:00.896Z,15.02
2022-11-26T19:04:03.694Z,14.27
2022-11-26T19:07:05.838Z,14.68
2022-11-26T19:10:08.483Z,13.25
2022-11-26T19:13:10.641Z,14.73
2022-11-26T19:16:16.772Z,15.65
2022-11-26T19:19:19.624Z,15.40
2022-11-26T19:22:21.679Z,13.52
2022-11-26T19:25:24.150Z,16.10
2022-11-26T19:28:27.573Z,14.75
2022-11-26T19:31:34.962Z,25.23
2022-11-26T19:34:38.546Z,14.30
2022-11-26T19:37:40.592Z,14.00
2022-11-26T19:40:45.906Z,15.25
2022-11-26T19:43:48.116Z,15.23
2022-11-26T19:46:56.044Z,14.20
2022-11-26T19:50:03.366Z,13.75
2022-11-26T19:53:05.396Z,14.48
2022-11-26T19:56:19.677Z,14.93
2022-11-26T19:59:22.874Z,16.27
2022-11-26T20:02:31.519Z,15.13
2022-11-26T20:05:33.576Z,15.77
2022-11-26T20:08:38.409Z,15.15
2022-11-26T20:11:41.235Z,16.88
2022-11-26T20:14:43.328Z,14.73
2022-11-26T20:17:45.422Z,16.13
2022-11-26T20:21:19.955Z,16.20
2022-11-26T20:24:22.031Z,15.60
2022-11-26T20:27:24.063Z,16.13
2022-11-26T20:30:26.871Z,15.55
2022-11-26T20:33:28.810Z,15.38
2022-11-26T20:36:31.943Z,15.05
2022-11-26T20:39:34.215Z,16.13
2022-11-26T20:42:37.776Z,15.27
2022-11-26T20:45:40.212Z,14.82
2022-11-26T20:48:44.546Z,13.82
2022-11-26T20:51:46.657Z,14.32
2022-11-26T20:54:53.442Z,14.82
2022-11-26T20:57:55.969Z,15.02
2022-11-26T21:00:58.114Z,13.88
2022-11-26T21:04:00.327Z,14.23
2022-11-26T21:07:04.836Z,14.45
2022-11-26T21:10:09.486Z,14.85
2022-11-26T21:13:19.353Z,16.15
2022-11-26T21:16:22.620Z,14.38
2022-11-26T21:19:24.985Z,14.15
2022-11-26T21:22:27.047Z,14.07
2022-11-26T21:25:29.086Z,15.25
2022-11-26T21:28:31.145Z,15.48
2022-11-26T21:31:33.216Z,13.73
2022-11-26T21:34:35.234Z,13.18
2022-11-26T21:37:37.468Z,17.45
2022-11-26T21:40:39.527Z,15.13
2022-11-26T21:43:42.853Z,15.25
2022-11-26T21:46:44.913Z,13.93
2022-11-26T21:49:47.038Z,15.02
2022-11-26T21:52:49.087Z,14.85
2022-11-26T21:55:53.245Z,14.43
2022-11-26T21:58:57.159Z,12.98
2022-11-26T22:01:59.225Z,15.25
2022-11-26T22:05:01.566Z,13.38
2022-11-26T22:08:04.006Z,14.88
2022-11-26T22:11:15.070Z,14.50
2022-11-26T22:14:17.381Z,14.00
2022-11-26T22:17:19.514Z,16.60
2022-11-26T22:20:21.816Z,15.70
2022-11-26T22:23:23.916Z,14.63
2022-11-26T22:26:27.698Z,13.73
2022-11-26T22:29:29.684Z,14.20
2022-11-26T22:32:31.701Z,16.08
2022-11-26T22:35:33.836Z,16.38
2022-11-26T22:38:37.580Z,15.40
2022-11-26T22:41:41.244Z,15.55
2022-11-26T22:44:43.264Z,14.18
2022-11-26T22:47:49.859Z,16.13
2022-11-26T22:50:55.722Z,13.82
2022-11-26T22:54:03.950Z,14.68
2022-11-26T22:57:06.096Z,14.57
2022-11-26T23:00:14.885Z,13.90
2022-11-26T23:03:18.145Z,14.32
2022-11-26T23:06:22.923Z,14.43
2022-11-26T23:09:25.131Z,13.77
2022-11-26T23:12:27.139Z,14.05
2022-11-26T23:15:29.682Z,14.95
2022-11-26T23:18:31.711Z,14.23
2022-11-26T23:21:36.878Z,14.60
2022-11-26T23:24:38.862Z,12.82
2022-11-26T23:27:40.974Z,11.85
2022-11-26T23:30:43.190Z,14.32
2022-11-26T23:33:45.778Z,12.70
2022-11-26T23:36:48.057Z,12.35
2022-11-26T23:39:50.721Z,12.85
2022-11-26T23:42:52.909Z,11.23
2022-11-26T23:46:02.863Z,11.85
2022-11-26T23:49:05.188Z,13.35
2022-11-26T23:52:07.294Z,13.23
2022-11-26T23:55:10.509Z,13.00
2022-11-26T23:58:12.644Z,12.85
